sensor_id;sensor_type;location;lat;lon;timestamp;P1;durP1;ratioP1;P2;durP2;ratioP2
83326;SDS011;73250;55.594;13.020;2023-12-07T00:01:38;23.98;;;19.90;;
83326;SDS011;73250;55.594;13.020;2023-12-07T00:04:05;24.63;;;20.45;;
83326;SDS011;73250;55.594;13.020;2023-12-07T00:06:33;25.60;;;20.42;;
83326;SDS011;73250;55.594;13.020;2023-12-07T00:09:00;25.27;;;20.30;;
83326;SDS011;73250;55.594;13.020;2023-12-07T00:11:26;25.17;;;21.45;;
83326;SDS011;73250;55.594;13.020;2023-12-07T00:13:53;23.83;;;18.13;;
83326;SDS011;73250;55.594;13.020;2023-12-07T00:16:19;24.25;;;19.83;;
83326;SDS011;73250;55.594;13.020;2023-12-07T00:18:46;24.33;;;19.67;;
83326;SDS011;73250;55.594;13.020;2023-12-07T00:21:13;23.63;;;20.10;;
83326;SDS011;73250;55.594;13.020;2023-12-07T00:23:41;25.25;;;19.92;;
83326;SDS011;73250;55.594;13.020;2023-12-07T00:26:07;24.17;;;19.55;;
83326;SDS011;73250;55.594;13.020;2023-12-07T00:28:35;23.17;;;18.75;;
83326;SDS011;73250;55.594;13.020;2023-12-07T00:31:02;23.25;;;19.05;;
83326;SDS011;73250;55.594;13.020;2023-12-07T00:33:29;24.35;;;20.08;;
83326;SDS011;73250;55.594;13.020;2023-12-07T00:35:56;22.67;;;19.10;;
83326;SDS011;73250;55.594;13.020;2023-12-07T00:38:22;24.42;;;19.23;;
83326;SDS011;73250;55.594;13.020;2023-12-07T00:40:50;24.13;;;19.17;;
83326;SDS011;73250;55.594;13.020;2023-12-07T00:43:17;25.15;;;20.02;;
83326;SDS011;73250;55.594;13.020;2023-12-07T00:45:44;24.95;;;19.48;;
83326;SDS011;73250;55.594;13.020;2023-12-07T00:48:10;24.45;;;20.58;;
83326;SDS011;73250;55.594;13.020;2023-12-07T00:50:37;25.25;;;19.55;;
83326;SDS011;73250;55.594;13.020;2023-12-07T00:53:04;24.73;;;19.77;;
83326;SDS011;73250;55.594;13.020;2023-12-07T00:55:30;25.67;;;20.17;;
83326;SDS011;73250;55.594;13.020;2023-12-07T00:57:58;23.63;;;19.52;;
83326;SDS011;73250;55.594;13.020;2023-12-07T01:00:26;24.42;;;19.70;;
83326;SDS011;73250;55.594;13.020;2023-12-07T01:02:53;25.13;;;20.98;;
83326;SDS011;73250;55.594;13.020;2023-12-07T01:05:22;23.15;;;19.05;;
83326;SDS011;73250;55.594;13.020;2023-12-07T01:07:49;24.00;;;19.73;;
83326;SDS011;73250;55.594;13.020;2023-12-07T01:10:15;23.67;;;18.92;;
83326;SDS011;73250;55.594;13.020;2023-12-07T01:12:42;23.63;;;19.70;;
83326;SDS011;73250;55.594;13.020;2023-12-07T01:15:10;23.55;;;18.92;;
83326;SDS011;73250;55.594;13.020;2023-12-07T01:17:37;24.35;;;18.90;;
83326;SDS011;73250;55.594;13.020;2023-12-07T01:20:04;24.08;;;19.15;;
83326;SDS011;73250;55.594;13.020;2023-12-07T01:22:36;23.27;;;18.52;;
83326;SDS011;73250;55.594;13.020;2023-12-07T01:25:04;24.02;;;18.65;;
83326;SDS011;73250;55.594;13.020;2023-12-07T01:27:31;23.95;;;19.40;;
83326;SDS011;73250;55.594;13.020;2023-12-07T01:29:58;24.23;;;18.92;;
83326;SDS011;73250;55.594;13.020;2023-12-07T01:32:26;22.95;;;18.90;;
83326;SDS011;73250;55.594;13.020;2023-12-07T01:34:53;23.55;;;18.85;;
83326;SDS011;73250;55.594;13.020;2023-12-07T01:37:20;20.95;;;18.60;;
83326;SDS011;73250;55.594;13.020;2023-12-07T01:39:46;23.40;;;18.42;;
83326;SDS011;73250;55.594;13.020;2023-12-07T01:42:13;23.45;;;18.85;;
83326;SDS011;73250;55.594;13.020;2023-12-07T01:44:39;23.80;;;18.98;;
83326;SDS011;73250;55.594;13.020;2023-12-07T01:47:06;23.33;;;18.65;;
83326;SDS011;73250;55.594;13.020;2023-12-07T01:49:36;24.67;;;19.42;;
83326;SDS011;73250;55.594;13.020;2023-12-07T01:52:04;22.60;;;18.75;;
83326;SDS011;73250;55.594;13.020;2023-12-07T01:54:31;24.02;;;18.77;;
83326;SDS011;73250;55.594;13.020;2023-12-07T01:56:58;23.00;;;19.67;;
83326;SDS011;73250;55.594;13.020;2023-12-07T01:59:25;25.17;;;19.98;;
83326;SDS011;73250;55.594;13.020;2023-12-07T02:01:52;25.15;;;18.58;;
83326;SDS011;73250;55.594;13.020;2023-12-07T02:04:18;22.70;;;18.75;;
83326;SDS011;73250;55.594;13.020;2023-12-07T02:06:46;24.83;;;18.92;;
83326;SDS011;73250;55.594;13.020;2023-12-07T02:09:13;23.92;;;19.40;;
83326;SDS011;73250;55.594;13.020;2023-12-07T02:11:40;22.60;;;18.90;;
83326;SDS011;73250;55.594;13.020;2023-12-07T02:14:06;21.98;;;17.67;;
83326;SDS011;73250;55.594;13.020;2023-12-07T02:16:35;23.90;;;18.90;;
83326;SDS011;73250;55.594;13.020;2023-12-07T02:19:12;22.88;;;18.08;;
83326;SDS011;73250;55.594;13.020;2023-12-07T02:21:52;24.10;;;18.90;;
83326;SDS011;73250;55.594;13.020;2023-12-07T02:24:22;24.27;;;18.55;;
83326;SDS011;73250;55.594;13.020;2023-12-07T02:26:53;24.25;;;19.80;;
83326;SDS011;73250;55.594;13.020;2023-12-07T02:29:20;22.92;;;17.90;;
83326;SDS011;73250;55.594;13.020;2023-12-07T02:31:46;24.73;;;19.55;;
83326;SDS011;73250;55.594;13.020;2023-12-07T02:34:13;24.05;;;19.65;;
83326;SDS011;73250;55.594;13.020;2023-12-07T02:36:40;22.92;;;18.80;;
83326;SDS011;73250;55.594;13.020;2023-12-07T02:39:10;22.45;;;19.27;;
83326;SDS011;73250;55.594;13.020;2023-12-07T02:41:37;23.90;;;19.23;;
83326;SDS011;73250;55.594;13.020;2023-12-07T02:44:07;22.90;;;17.83;;
83326;SDS011;73250;55.594;13.020;2023-12-07T02:46:34;22.90;;;18.92;;
83326;SDS011;73250;55.594;13.020;2023-12-07T02:49:00;27.20;;;19.38;;
83326;SDS011;73250;55.594;13.020;2023-12-07T02:51:28;24.15;;;18.92;;
83326;SDS011;73250;55.594;13.020;2023-12-07T02:53:54;22.67;;;18.33;;
83326;SDS011;73250;55.594;13.020;2023-12-07T02:56:21;22.25;;;18.23;;
83326;SDS011;73250;55.594;13.020;2023-12-07T02:58:48;23.77;;;18.73;;
83326;SDS011;73250;55.594;13.020;2023-12-07T03:01:16;23.05;;;18.45;;
83326;SDS011;73250;55.594;13.020;2023-12-07T03:03:42;22.05;;;18.25;;
83326;SDS011;73250;55.594;13.020;2023-12-07T03:06:09;23.52;;;18.85;;
83326;SDS011;73250;55.594;13.020;2023-12-07T03:08:36;24.48;;;19.23;;
83326;SDS011;73250;55.594;13.020;2023-12-07T03:11:02;27.05;;;19.70;;
83326;SDS011;73250;55.594;13.020;2023-12-07T03:13:30;24.25;;;18.90;;
83326;SDS011;73250;55.594;13.020;2023-12-07T03:15:57;26.23;;;18.67;;
83326;SDS011;73250;55.594;13.020;2023-12-07T03:18:25;23.15;;;18.63;;
83326;SDS011;73250;55.594;13.020;2023-12-07T03:20:52;23.83;;;17.77;;
83326;SDS011;73250;55.594;13.020;2023-12-07T03:23:18;22.85;;;18.20;;
83326;SDS011;73250;55.594;13.020;2023-12-07T03:25:45;23.08;;;17.98;;
83326;SDS011;73250;55.594;13.020;2023-12-07T03:28:12;24.38;;;19.13;;
83326;SDS011;73250;55.594;13.020;2023-12-07T03:30:38;23.08;;;19.45;;
83326;SDS011;73250;55.594;13.020;2023-12-07T03:33:05;23.75;;;18.80;;
83326;SDS011;73250;55.594;13.020;2023-12-07T03:35:33;22.95;;;18.10;;
83326;SDS011;73250;55.594;13.020;2023-12-07T03:37:59;22.42;;;17.70;;
83326;SDS011;73250;55.594;13.020;2023-12-07T03:40:26;23.77;;;18.73;;
83326;SDS011;73250;55.594;13.020;2023-12-07T03:42:56;23.58;;;19.35;;
83326;SDS011;73250;55.594;13.020;2023-12-07T03:45:22;21.85;;;18.40;;
83326;SDS011;73250;55.594;13.020;2023-12-07T03:47:49;25.30;;;20.23;;
83326;SDS011;73250;55.594;13.020;2023-12-07T03:50:16;24.92;;;18.83;;
83326;SDS011;73250;55.594;13.020;2023-12-07T03:52:44;23.25;;;18.50;;
83326;SDS011;73250;55.594;13.020;2023-12-07T03:55:11;21.88;;;17.63;;
83326;SDS011;73250;55.594;13.020;2023-12-07T03:57:38;23.38;;;18.67;;
83326;SDS011;73250;55.594;13.020;2023-12-07T04:00:05;24.85;;;18.33;;
83326;SDS011;73250;55.594;13.020;2023-12-07T04:02:34;20.55;;;17.83;;
83326;SDS011;73250;55.594;13.020;2023-12-07T04:05:00;22.23;;;17.73;;
83326;SDS011;73250;55.594;13.020;2023-12-07T04:07:27;22.73;;;18.45;;
83326;SDS011;73250;55.594;13.020;2023-12-07T04:09:55;20.67;;;17.60;;
83326;SDS011;73250;55.594;13.020;2023-12-07T04:12:23;20.85;;;16.20;;
83326;SDS011;73250;55.594;13.020;2023-12-07T04:14:50;23.42;;;17.92;;
83326;SDS011;73250;55.594;13.020;2023-12-07T04:17:16;21.98;;;18.27;;
83326;SDS011;73250;55.594;13.020;2023-12-07T04:19:43;23.25;;;18.20;;
83326;SDS011;73250;55.594;13.020;2023-12-07T04:22:09;23.38;;;17.77;;
83326;SDS011;73250;55.594;13.020;2023-12-07T04:24:36;25.25;;;19.33;;
83326;SDS011;73250;55.594;13.020;2023-12-07T04:27:04;20.98;;;17.63;;
83326;SDS011;73250;55.594;13.020;2023-12-07T04:29:31;23.05;;;18.48;;
83326;SDS011;73250;55.594;13.020;2023-12-07T04:31:58;21.80;;;18.15;;
83326;SDS011;73250;55.594;13.020;2023-12-07T04:34:24;23.83;;;18.67;;
83326;SDS011;73250;55.594;13.020;2023-12-07T04:36:51;22.85;;;18.27;;
83326;SDS011;73250;55.594;13.020;2023-12-07T04:39:17;20.92;;;17.50;;
83326;SDS011;73250;55.594;13.020;2023-12-07T04:41:44;24.08;;;17.83;;
83326;SDS011;73250;55.594;13.020;2023-12-07T04:44:12;20.25;;;17.50;;
83326;SDS011;73250;55.594;13.020;2023-12-07T04:46:39;23.38;;;18.02;;
83326;SDS011;73250;55.594;13.020;2023-12-07T04:49:06;22.58;;;17.45;;
83326;SDS011;73250;55.594;13.020;2023-12-07T04:51:32;22.30;;;17.55;;
83326;SDS011;73250;55.594;13.020;2023-12-07T04:53:59;21.05;;;17.15;;
83326;SDS011;73250;55.594;13.020;2023-12-07T04:56:26;20.77;;;17.13;;
83326;SDS011;73250;55.594;13.020;2023-12-07T04:58:52;23.98;;;18.50;;
83326;SDS011;73250;55.594;13.020;2023-12-07T05:01:20;23.30;;;18.13;;
83326;SDS011;73250;55.594;13.020;2023-12-07T05:03:47;21.92;;;19.02;;
83326;SDS011;73250;55.594;13.020;2023-12-07T05:06:14;21.13;;;17.08;;
83326;SDS011;73250;55.594;13.020;2023-12-07T05:08:40;21.60;;;17.52;;
83326;SDS011;73250;55.594;13.020;2023-12-07T05:11:08;21.55;;;17.90;;
83326;SDS011;73250;55.594;13.020;2023-12-07T05:13:35;21.98;;;18.35;;
83326;SDS011;73250;55.594;13.020;2023-12-07T05:16:01;24.27;;;18.73;;
83326;SDS011;73250;55.594;13.020;2023-12-07T05:18:30;21.65;;;18.35;;
83326;SDS011;73250;55.594;13.020;2023-12-07T05:20:56;22.45;;;17.98;;
83326;SDS011;73250;55.594;13.020;2023-12-07T05:23:24;20.98;;;16.95;;
83326;SDS011;73250;55.594;13.020;2023-12-07T05:25:50;20.17;;;16.85;;
83326;SDS011;73250;55.594;13.020;2023-12-07T05:28:17;22.77;;;17.55;;
83326;SDS011;73250;55.594;13.020;2023-12-07T05:30:46;23.92;;;18.00;;
83326;SDS011;73250;55.594;13.020;2023-12-07T05:33:13;22.63;;;17.63;;
83326;SDS011;73250;55.594;13.020;2023-12-07T05:35:41;23.35;;;19.33;;
83326;SDS011;73250;55.594;13.020;2023-12-07T05:38:07;24.15;;;19.00;;
83326;SDS011;73250;55.594;13.020;2023-12-07T05:40:34;22.05;;;17.95;;
83326;SDS011;73250;55.594;13.020;2023-12-07T05:43:01;24.73;;;18.80;;
83326;SDS011;73250;55.594;13.020;2023-12-07T05:45:28;24.50;;;18.75;;
83326;SDS011;73250;55.594;13.020;2023-12-07T05:47:55;25.17;;;19.38;;
83326;SDS011;73250;55.594;13.020;2023-12-07T05:50:22;21.85;;;17.38;;
83326;SDS011;73250;55.594;13.020;2023-12-07T05:52:49;24.67;;;18.20;;
83326;SDS011;73250;55.594;13.020;2023-12-07T05:55:16;25.75;;;20.05;;
83326;SDS011;73250;55.594;13.020;2023-12-07T05:57:44;23.13;;;19.35;;
83326;SDS011;73250;55.594;13.020;2023-12-07T06:00:14;24.80;;;18.95;;
83326;SDS011;73250;55.594;13.020;2023-12-07T06:02:42;24.45;;;18.58;;
83326;SDS011;73250;55.594;13.020;2023-12-07T06:05:08;23.17;;;19.27;;
83326;SDS011;73250;55.594;13.020;2023-12-07T06:07:36;22.35;;;18.83;;
83326;SDS011;73250;55.594;13.020;2023-12-07T06:10:04;24.65;;;19.13;;
83326;SDS011;73250;55.594;13.020;2023-12-07T06:12:31;24.08;;;19.45;;
83326;SDS011;73250;55.594;13.020;2023-12-07T06:14:58;24.67;;;19.27;;
83326;SDS011;73250;55.594;13.020;2023-12-07T06:17:24;23.92;;;19.45;;
83326;SDS011;73250;55.594;13.020;2023-12-07T06:19:52;23.27;;;18.05;;
83326;SDS011;73250;55.594;13.020;2023-12-07T06:22:18;24.27;;;19.15;;
83326;SDS011;73250;55.594;13.020;2023-12-07T06:24:45;23.15;;;18.65;;
83326;SDS011;73250;55.594;13.020;2023-12-07T06:27:13;23.85;;;19.00;;
83326;SDS011;73250;55.594;13.020;2023-12-07T06:29:40;25.38;;;20.00;;
83326;SDS011;73250;55.594;13.020;2023-12-07T06:32:06;23.35;;;18.27;;
83326;SDS011;73250;55.594;13.020;2023-12-07T06:34:33;25.13;;;19.73;;
83326;SDS011;73250;55.594;13.020;2023-12-07T06:37:05;22.90;;;18.67;;
83326;SDS011;73250;55.594;13.020;2023-12-07T06:39:31;22.35;;;18.65;;
83326;SDS011;73250;55.594;13.020;2023-12-07T06:41:58;24.90;;;19.05;;
83326;SDS011;73250;55.594;13.020;2023-12-07T06:44:27;22.92;;;18.63;;
83326;SDS011;73250;55.594;13.020;2023-12-07T06:46:53;19.90;;;17.13;;
83326;SDS011;73250;55.594;13.020;2023-12-07T06:49:20;25.50;;;19.08;;
83326;SDS011;73250;55.594;13.020;2023-12-07T06:51:47;22.67;;;18.83;;
83326;SDS011;73250;55.594;13.020;2023-12-07T06:54:14;23.58;;;18.75;;
83326;SDS011;73250;55.594;13.020;2023-12-07T06:56:40;25.48;;;20.15;;
83326;SDS011;73250;55.594;13.020;2023-12-07T06:59:07;24.67;;;20.35;;
83326;SDS011;73250;55.594;13.020;2023-12-07T07:01:36;23.23;;;18.58;;
83326;SDS011;73250;55.594;13.020;2023-12-07T07:04:03;23.15;;;19.55;;
83326;SDS011;73250;55.594;13.020;2023-12-07T07:06:30;24.38;;;19.02;;
83326;SDS011;73250;55.594;13.020;2023-12-07T07:08:57;25.08;;;20.20;;
83326;SDS011;73250;55.594;13.020;2023-12-07T07:11:24;25.35;;;20.45;;
83326;SDS011;73250;55.594;13.020;2023-12-07T07:13:51;23.63;;;19.20;;
83326;SDS011;73250;55.594;13.020;2023-12-07T07:16:17;24.48;;;19.42;;
83326;SDS011;73250;55.594;13.020;2023-12-07T07:18:45;30.02;;;20.20;;
83326;SDS011;73250;55.594;13.020;2023-12-07T07:21:12;23.05;;;19.02;;
83326;SDS011;73250;55.594;13.020;2023-12-07T07:23:39;25.35;;;19.08;;
83326;SDS011;73250;55.594;13.020;2023-12-07T07:26:05;25.80;;;19.95;;
83326;SDS011;73250;55.594;13.020;2023-12-07T07:28:33;25.65;;;20.95;;
83326;SDS011;73250;55.594;13.020;2023-12-07T07:31:01;27.88;;;20.27;;
83326;SDS011;73250;55.594;13.020;2023-12-07T07:33:28;28.70;;;21.10;;
83326;SDS011;73250;55.594;13.020;2023-12-07T07:35:56;25.67;;;20.42;;
83326;SDS011;73250;55.594;13.020;2023-12-07T07:38:23;27.48;;;20.65;;
83326;SDS011;73250;55.594;13.020;2023-12-07T07:40:50;26.23;;;19.88;;
83326;SDS011;73250;55.594;13.020;2023-12-07T07:43:17;29.13;;;20.90;;
83326;SDS011;73250;55.594;13.020;2023-12-07T07:45:44;26.77;;;20.73;;
83326;SDS011;73250;55.594;13.020;2023-12-07T07:48:11;24.55;;;19.63;;
83326;SDS011;73250;55.594;13.020;2023-12-07T07:50:38;25.35;;;20.35;;
83326;SDS011;73250;55.594;13.020;2023-12-07T07:53:06;25.60;;;19.17;;
83326;SDS011;73250;55.594;13.020;2023-12-07T07:55:32;21.83;;;18.63;;
83326;SDS011;73250;55.594;13.020;2023-12-07T07:57:59;25.98;;;19.60;;
83326;SDS011;73250;55.594;13.020;2023-12-07T08:00:26;22.08;;;18.25;;
83326;SDS011;73250;55.594;13.020;2023-12-07T08:02:53;24.30;;;19.60;;
83326;SDS011;73250;55.594;13.020;2023-12-07T08:05:19;26.88;;;20.88;;
83326;SDS011;73250;55.594;13.020;2023-12-07T08:07:46;28.70;;;22.90;;
83326;SDS011;73250;55.594;13.020;2023-12-07T08:10:14;28.80;;;22.65;;
83326;SDS011;73250;55.594;13.020;2023-12-07T08:12:41;30.23;;;22.33;;
83326;SDS011;73250;55.594;13.020;2023-12-07T08:15:08;33.35;;;24.98;;
83326;SDS011;73250;55.594;13.020;2023-12-07T08:17:36;36.00;;;27.27;;
83326;SDS011;73250;55.594;13.020;2023-12-07T08:20:03;39.60;;;29.08;;
83326;SDS011;73250;55.594;13.020;2023-12-07T08:22:31;40.47;;;30.08;;
83326;SDS011;73250;55.594;13.020;2023-12-07T08:24:58;53.85;;;36.00;;
83326;SDS011;73250;55.594;13.020;2023-12-07T08:27:27;48.10;;;34.67;;
83326;SDS011;73250;55.594;13.020;2023-12-07T08:29:53;53.70;;;35.85;;
83326;SDS011;73250;55.594;13.020;2023-12-07T08:32:20;43.03;;;33.70;;
83326;SDS011;73250;55.594;13.020;2023-12-07T08:34:47;51.75;;;37.03;;
83326;SDS011;73250;55.594;13.020;2023-12-07T08:37:13;51.65;;;38.08;;
83326;SDS011;73250;55.594;13.020;2023-12-07T08:39:40;51.33;;;39.83;;
83326;SDS011;73250;55.594;13.020;2023-12-07T08:42:06;56.08;;;39.20;;
83326;SDS011;73250;55.594;13.020;2023-12-07T08:44:35;51.42;;;41.08;;
83326;SDS011;73250;55.594;13.020;2023-12-07T08:47:02;57.08;;;41.08;;
83326;SDS011;73250;55.594;13.020;2023-12-07T08:49:29;52.95;;;40.78;;
83326;SDS011;73250;55.594;13.020;2023-12-07T08:51:56;53.33;;;38.47;;
83326;SDS011;73250;55.594;13.020;2023-12-07T08:54:23;58.90;;;41.13;;
83326;SDS011;73250;55.594;13.020;2023-12-07T08:56:50;54.40;;;40.03;;
83326;SDS011;73250;55.594;13.020;2023-12-07T08:59:17;50.40;;;39.67;;
83326;SDS011;73250;55.594;13.020;2023-12-07T09:01:45;55.72;;;41.30;;
83326;SDS011;73250;55.594;13.020;2023-12-07T09:04:12;51.20;;;40.30;;
83326;SDS011;73250;55.594;13.020;2023-12-07T09:06:39;52.85;;;39.45;;
83326;SDS011;73250;55.594;13.020;2023-12-07T09:09:05;55.03;;;37.75;;
83326;SDS011;73250;55.594;13.020;2023-12-07T09:11:32;50.53;;;37.67;;
83326;SDS011;73250;55.594;13.020;2023-12-07T09:13:59;56.00;;;39.92;;
83326;SDS011;73250;55.594;13.020;2023-12-07T09:16:25;52.95;;;39.58;;
83326;SDS011;73250;55.594;13.020;2023-12-07T09:18:53;51.35;;;39.50;;
83326;SDS011;73250;55.594;13.020;2023-12-07T09:21:21;51.85;;;40.53;;
83326;SDS011;73250;55.594;13.020;2023-12-07T09:23:47;55.17;;;39.67;;
83326;SDS011;73250;55.594;13.020;2023-12-07T09:26:14;52.28;;;37.75;;
83326;SDS011;73250;55.594;13.020;2023-12-07T09:28:40;42.25;;;32.83;;
83326;SDS011;73250;55.594;13.020;2023-12-07T09:31:07;43.53;;;34.00;;
83326;SDS011;73250;55.594;13.020;2023-12-07T09:33:34;44.03;;;33.75;;
83326;SDS011;73250;55.594;13.020;2023-12-07T09:36:02;43.30;;;33.45;;
83326;SDS011;73250;55.594;13.020;2023-12-07T09:38:33;43.67;;;32.03;;
83326;SDS011;73250;55.594;13.020;2023-12-07T09:41:01;38.42;;;31.58;;
83326;SDS011;73250;55.594;13.020;2023-12-07T09:43:28;57.58;;;42.67;;
83326;SDS011;73250;55.594;13.020;2023-12-07T09:45:55;55.90;;;41.22;;
83326;SDS011;73250;55.594;13.020;2023-12-07T09:48:23;52.38;;;37.35;;
83326;SDS011;73250;55.594;13.020;2023-12-07T09:50:50;56.00;;;39.83;;
83326;SDS011;73250;55.594;13.020;2023-12-07T09:53:19;62.25;;;42.20;;
83326;SDS011;73250;55.594;13.020;2023-12-07T09:55:46;55.00;;;41.40;;
83326;SDS011;73250;55.594;13.020;2023-12-07T09:58:13;55.20;;;39.92;;
83326;SDS011;73250;55.594;13.020;2023-12-07T10:00:40;54.65;;;39.40;;
83326;SDS011;73250;55.594;13.020;2023-12-07T10:03:07;57.42;;;39.30;;
83326;SDS011;73250;55.594;13.020;2023-12-07T10:05:34;60.55;;;40.83;;
83326;SDS011;73250;55.594;13.020;2023-12-07T10:08:26;61.95;;;42.75;;
83326;SDS011;73250;55.594;13.020;2023-12-07T10:11:01;60.67;;;42.13;;
83326;SDS011;73250;55.594;13.020;2023-12-07T10:13:30;60.28;;;41.40;;
83326;SDS011;73250;55.594;13.020;2023-12-07T10:16:04;59.22;;;39.97;;
83326;SDS011;73250;55.594;13.020;2023-12-07T10:18:35;59.22;;;40.33;;
83326;SDS011;73250;55.594;13.020;2023-12-07T10:21:02;61.15;;;40.28;;
83326;SDS011;73250;55.594;13.020;2023-12-07T10:23:30;58.25;;;41.25;;
83326;SDS011;73250;55.594;13.020;2023-12-07T10:25:58;63.33;;;43.08;;
83326;SDS011;73250;55.594;13.020;2023-12-07T10:28:25;59.42;;;41.15;;
83326;SDS011;73250;55.594;13.020;2023-12-07T10:30:52;53.13;;;41.45;;
83326;SDS011;73250;55.594;13.020;2023-12-07T10:33:19;59.13;;;41.78;;
83326;SDS011;73250;55.594;13.020;2023-12-07T10:35:46;62.42;;;44.53;;
83326;SDS011;73250;55.594;13.020;2023-12-07T10:38:13;70.38;;;46.63;;
83326;SDS011;73250;55.594;13.020;2023-12-07T10:40:41;62.55;;;43.17;;
83326;SDS011;73250;55.594;13.020;2023-12-07T10:43:08;59.10;;;42.15;;
83326;SDS011;73250;55.594;13.020;2023-12-07T10:45:35;58.90;;;42.20;;
83326;SDS011;73250;55.594;13.020;2023-12-07T10:48:03;60.58;;;41.47;;
83326;SDS011;73250;55.594;13.020;2023-12-07T10:50:34;63.13;;;44.70;;
83326;SDS011;73250;55.594;13.020;2023-12-07T10:53:04;62.53;;;44.80;;
83326;SDS011;73250;55.594;13.020;2023-12-07T10:55:35;65.03;;;46.90;;
83326;SDS011;73250;55.594;13.020;2023-12-07T10:58:12;74.93;;;47.78;;
83326;SDS011;73250;55.594;13.020;2023-12-07T11:00:41;67.88;;;46.97;;
83326;SDS011;73250;55.594;13.020;2023-12-07T11:03:11;58.13;;;40.00;;
83326;SDS011;73250;55.594;13.020;2023-12-07T11:05:41;62.78;;;44.42;;
83326;SDS011;73250;55.594;13.020;2023-12-07T11:08:09;57.13;;;40.60;;
83326;SDS011;73250;55.594;13.020;2023-12-07T11:10:45;55.75;;;41.17;;
83326;SDS011;73250;55.594;13.020;2023-12-07T11:13:20;55.65;;;43.03;;
83326;SDS011;73250;55.594;13.020;2023-12-07T11:15:50;63.00;;;43.47;;
83326;SDS011;73250;55.594;13.020;2023-12-07T11:18:17;56.35;;;41.15;;
83326;SDS011;73250;55.594;13.020;2023-12-07T11:20:45;54.90;;;41.80;;
83326;SDS011;73250;55.594;13.020;2023-12-07T11:23:15;55.97;;;41.20;;
83326;SDS011;73250;55.594;13.020;2023-12-07T11:25:44;54.08;;;37.75;;
83326;SDS011;73250;55.594;13.020;2023-12-07T11:28:11;59.33;;;41.47;;
83326;SDS011;73250;55.594;13.020;2023-12-07T11:30:38;54.15;;;39.08;;
83326;SDS011;73250;55.594;13.020;2023-12-07T11:33:08;56.95;;;39.17;;
83326;SDS011;73250;55.594;13.020;2023-12-07T11:38:31;50.42;;;36.13;;
83326;SDS011;73250;55.594;13.020;2023-12-07T11:41:00;53.17;;;36.70;;
83326;SDS011;73250;55.594;13.020;2023-12-07T11:43:37;51.13;;;37.60;;
83326;SDS011;73250;55.594;13.020;2023-12-07T11:46:11;53.88;;;37.85;;
83326;SDS011;73250;55.594;13.020;2023-12-07T11:48:39;46.08;;;36.63;;
83326;SDS011;73250;55.594;13.020;2023-12-07T11:51:06;46.33;;;37.13;;
83326;SDS011;73250;55.594;13.020;2023-12-07T11:53:34;48.35;;;37.90;;
83326;SDS011;73250;55.594;13.020;2023-12-07T11:56:03;53.50;;;39.65;;
83326;SDS011;73250;55.594;13.020;2023-12-07T11:58:31;54.70;;;38.42;;
83326;SDS011;73250;55.594;13.020;2023-12-07T12:00:59;54.50;;;37.08;;
83326;SDS011;73250;55.594;13.020;2023-12-07T12:03:27;49.08;;;37.65;;
83326;SDS011;73250;55.594;13.020;2023-12-07T12:05:56;50.45;;;37.78;;
83326;SDS011;73250;55.594;13.020;2023-12-07T12:08:22;53.05;;;36.40;;
83326;SDS011;73250;55.594;13.020;2023-12-07T12:10:50;50.20;;;36.85;;
83326;SDS011;73250;55.594;13.020;2023-12-07T12:13:19;57.97;;;38.53;;
83326;SDS011;73250;55.594;13.020;2023-12-07T12:15:51;57.28;;;36.17;;
83326;SDS011;73250;55.594;13.020;2023-12-07T12:18:18;47.53;;;35.67;;
83326;SDS011;73250;55.594;13.020;2023-12-07T12:20:45;51.17;;;36.20;;
83326;SDS011;73250;55.594;13.020;2023-12-07T12:23:12;48.92;;;36.03;;
83326;SDS011;73250;55.594;13.020;2023-12-07T12:25:39;49.40;;;36.30;;
83326;SDS011;73250;55.594;13.020;2023-12-07T12:28:06;52.05;;;39.50;;
83326;SDS011;73250;55.594;13.020;2023-12-07T12:30:35;57.13;;;41.58;;
83326;SDS011;73250;55.594;13.020;2023-12-07T12:33:02;51.45;;;39.42;;
83326;SDS011;73250;55.594;13.020;2023-12-07T12:35:29;46.20;;;35.38;;
83326;SDS011;73250;55.594;13.020;2023-12-07T12:37:57;45.53;;;33.50;;
83326;SDS011;73250;55.594;13.020;2023-12-07T12:40:26;51.55;;;33.03;;
83326;SDS011;73250;55.594;13.020;2023-12-07T12:42:55;43.58;;;32.83;;
83326;SDS011;73250;55.594;13.020;2023-12-07T12:45:21;41.08;;;31.38;;
83326;SDS011;73250;55.594;13.020;2023-12-07T12:47:50;44.47;;;35.58;;
83326;SDS011;73250;55.594;13.020;2023-12-07T12:50:32;46.33;;;34.20;;
83326;SDS011;73250;55.594;13.020;2023-12-07T12:53:02;43.75;;;31.33;;
83326;SDS011;73250;55.594;13.020;2023-12-07T12:55:30;40.95;;;29.13;;
83326;SDS011;73250;55.594;13.020;2023-12-07T12:57:57;37.63;;;29.90;;
83326;SDS011;73250;55.594;13.020;2023-12-07T13:00:25;42.15;;;30.63;;
83326;SDS011;73250;55.594;13.020;2023-12-07T13:02:53;38.38;;;29.10;;
83326;SDS011;73250;55.594;13.020;2023-12-07T13:05:20;35.15;;;29.58;;
83326;SDS011;73250;55.594;13.020;2023-12-07T13:07:48;36.38;;;28.80;;
83326;SDS011;73250;55.594;13.020;2023-12-07T13:10:14;40.08;;;31.25;;
83326;SDS011;73250;55.594;13.020;2023-12-07T13:12:41;37.38;;;30.23;;
83326;SDS011;73250;55.594;13.020;2023-12-07T13:15:09;43.15;;;33.20;;
83326;SDS011;73250;55.594;13.020;2023-12-07T13:17:35;41.30;;;31.63;;
83326;SDS011;73250;55.594;13.020;2023-12-07T13:20:05;42.40;;;33.58;;
83326;SDS011;73250;55.594;13.020;2023-12-07T13:22:33;42.85;;;31.98;;
83326;SDS011;73250;55.594;13.020;2023-12-07T13:25:00;38.35;;;29.83;;
83326;SDS011;73250;55.594;13.020;2023-12-07T13:27:27;57.58;;;40.97;;
83326;SDS011;73250;55.594;13.020;2023-12-07T13:29:54;39.65;;;31.13;;
83326;SDS011;73250;55.594;13.020;2023-12-07T13:32:21;36.55;;;29.05;;
83326;SDS011;73250;55.594;13.020;2023-12-07T13:34:48;57.17;;;35.00;;
83326;SDS011;73250;55.594;13.020;2023-12-07T13:37:16;45.17;;;33.22;;
83326;SDS011;73250;55.594;13.020;2023-12-07T13:39:43;49.13;;;37.75;;
83326;SDS011;73250;55.594;13.020;2023-12-07T13:42:10;52.92;;;37.22;;
83326;SDS011;73250;55.594;13.020;2023-12-07T13:44:37;47.53;;;33.13;;
83326;SDS011;73250;55.594;13.020;2023-12-07T13:47:03;43.75;;;33.63;;
83326;SDS011;73250;55.594;13.020;2023-12-07T13:49:30;44.53;;;32.25;;
83326;SDS011;73250;55.594;13.020;2023-12-07T13:51:57;49.75;;;35.65;;
83326;SDS011;73250;55.594;13.020;2023-12-07T13:54:26;44.75;;;34.90;;
83326;SDS011;73250;55.594;13.020;2023-12-07T13:56:53;40.35;;;31.27;;
83326;SDS011;73250;55.594;13.020;2023-12-07T13:59:19;34.45;;;27.70;;
83326;SDS011;73250;55.594;13.020;2023-12-07T14:01:47;37.15;;;28.88;;
83326;SDS011;73250;55.594;13.020;2023-12-07T14:04:14;36.30;;;26.45;;
83326;SDS011;73250;55.594;13.020;2023-12-07T14:06:40;39.22;;;25.23;;
83326;SDS011;73250;55.594;13.020;2023-12-07T14:09:07;34.40;;;24.05;;
83326;SDS011;73250;55.594;13.020;2023-12-07T14:11:35;32.45;;;23.70;;
83326;SDS011;73250;55.594;13.020;2023-12-07T14:14:02;32.40;;;22.45;;